sensor_id;sensor_type;location;lat;lon;timestamp;temperature;humidity
82788;DHT22;72529;51.786;4.662;2023-09-19T00:00:20;17.55;75.18
82788;DHT22;72529;51.786;4.662;2023-09-19T00:02:55;17.59;72.25
82788;DHT22;72529;51.786;4.662;2023-09-19T00:05:25;17.54;72.61
82788;DHT22;72529;51.786;4.662;2023-09-19T00:07:53;17.66;71.33
82788;DHT22;72529;51.786;4.662;2023-09-19T00:10:22;17.59;69.65
82788;DHT22;72529;51.786;4.662;2023-09-19T00:12:51;17.54;69.62
82788;DHT22;72529;51.786;4.662;2023-09-19T00:15:17;17.51;68.69
82788;DHT22;72529;51.786;4.662;2023-09-19T00:17:44;17.53;66.81
82788;DHT22;72529;51.786;4.662;2023-09-19T00:20:10;17.50;67.43
82788;DHT22;72529;51.786;4.662;2023-09-19T00:22:41;17.39;68.25
82788;DHT22;72529;51.786;4.662;2023-09-19T00:25:11;17.34;69.54
82788;DHT22;72529;51.786;4.662;2023-09-19T00:27:41;17.31;69.42
82788;DHT22;72529;51.786;4.662;2023-09-19T00:30:09;17.36;69.71
82788;DHT22;72529;51.786;4.662;2023-09-19T00:32:42;17.33;68.62
82788;DHT22;72529;51.786;4.662;2023-09-19T00:35:08;17.30;69.33
82788;DHT22;72529;51.786;4.662;2023-09-19T00:37:37;17.30;69.97
82788;DHT22;72529;51.786;4.662;2023-09-19T00:40:06;17.29;70.05
82788;DHT22;72529;51.786;4.662;2023-09-19T00:42:34;17.16;70.95
82788;DHT22;72529;51.786;4.662;2023-09-19T00:45:03;17.22;70.23
82788;DHT22;72529;51.786;4.662;2023-09-19T00:47:29;17.09;71.57
82788;DHT22;72529;51.786;4.662;2023-09-19T00:49:55;17.03;71.28
82788;DHT22;72529;51.786;4.662;2023-09-19T00:52:21;17.07;71.14
82788;DHT22;72529;51.786;4.662;2023-09-19T00:54:47;17.16;71.90
82788;DHT22;72529;51.786;4.662;2023-09-19T00:57:14;17.12;72.06
82788;DHT22;72529;51.786;4.662;2023-09-19T00:59:45;17.07;72.78
82788;DHT22;72529;51.786;4.662;2023-09-19T01:02:11;17.16;73.39
82788;DHT22;72529;51.786;4.662;2023-09-19T01:04:40;17.06;74.38
82788;DHT22;72529;51.786;4.662;2023-09-19T01:07:06;17.05;74.26
82788;DHT22;72529;51.786;4.662;2023-09-19T01:09:31;17.06;73.96
82788;DHT22;72529;51.786;4.662;2023-09-19T01:12:01;16.96;74.46
82788;DHT22;72529;51.786;4.662;2023-09-19T01:14:41;16.93;74.00
82788;DHT22;72529;51.786;4.662;2023-09-19T01:17:25;16.90;74.80
82788;DHT22;72529;51.786;4.662;2023-09-19T01:20:14;16.86;74.64
82788;DHT22;72529;51.786;4.662;2023-09-19T01:23:01;16.83;74.33
82788;DHT22;72529;51.786;4.662;2023-09-19T01:31:02;16.69;72.75
82788;DHT22;72529;51.786;4.662;2023-09-19T01:34:01;16.72;72.37
82788;DHT22;72529;51.786;4.662;2023-09-19T01:36:32;16.72;72.35
82788;DHT22;72529;51.786;4.662;2023-09-19T01:39:07;16.69;72.59
82788;DHT22;72529;51.786;4.662;2023-09-19T01:41:56;16.73;71.11
82788;DHT22;72529;51.786;4.662;2023-09-19T01:44:38;16.65;70.59
82788;DHT22;72529;51.786;4.662;2023-09-19T01:47:19;16.71;71.15
82788;DHT22;72529;51.786;4.662;2023-09-19T01:52:50;16.69;71.38
82788;DHT22;72529;51.786;4.662;2023-09-19T01:55:21;16.61;71.83
82788;DHT22;72529;51.786;4.662;2023-09-19T01:58:07;16.66;71.67
82788;DHT22;72529;51.786;4.662;2023-09-19T02:00:37;16.69;71.48
82788;DHT22;72529;51.786;4.662;2023-09-19T02:03:09;16.73;72.03
82788;DHT22;72529;51.786;4.662;2023-09-19T02:05:34;16.73;72.44
82788;DHT22;72529;51.786;4.662;2023-09-19T02:08:00;16.68;72.41
82788;DHT22;72529;51.786;4.662;2023-09-19T02:10:26;16.56;72.72
82788;DHT22;72529;51.786;4.662;2023-09-19T02:12:51;16.52;73.29
82788;DHT22;72529;51.786;4.662;2023-09-19T02:15:17;16.47;74.04
82788;DHT22;72529;51.786;4.662;2023-09-19T02:17:43;16.44;73.98
82788;DHT22;72529;51.786;4.662;2023-09-19T02:20:10;16.41;73.41
82788;DHT22;72529;51.786;4.662;2023-09-19T02:22:41;16.38;73.50
82788;DHT22;72529;51.786;4.662;2023-09-19T02:25:07;16.47;72.99
82788;DHT22;72529;51.786;4.662;2023-09-19T02:27:34;16.41;73.08
82788;DHT22;72529;51.786;4.662;2023-09-19T02:29:59;16.31;73.41
82788;DHT22;72529;51.786;4.662;2023-09-19T02:32:29;16.40;73.07
82788;DHT22;72529;51.786;4.662;2023-09-19T02:34:57;16.38;73.66
82788;DHT22;72529;51.786;4.662;2023-09-19T02:37:23;16.47;72.49
82788;DHT22;72529;51.786;4.662;2023-09-19T02:39:49;16.40;73.02
82788;DHT22;72529;51.786;4.662;2023-09-19T02:42:14;16.38;72.94
82788;DHT22;72529;51.786;4.662;2023-09-19T02:44:40;16.38;71.76
82788;DHT22;72529;51.786;4.662;2023-09-19T02:47:05;16.35;72.53
82788;DHT22;72529;51.786;4.662;2023-09-19T02:49:30;16.38;72.53
82788;DHT22;72529;51.786;4.662;2023-09-19T02:51:56;16.35;72.17
82788;DHT22;72529;51.786;4.662;2023-09-19T02:54:24;16.31;72.11
82788;DHT22;72529;51.786;4.662;2023-09-19T02:56:49;16.24;72.31
82788;DHT22;72529;51.786;4.662;2023-09-19T02:59:14;16.28;71.64
82788;DHT22;72529;51.786;4.662;2023-09-19T03:01:43;16.26;71.50
82788;DHT22;72529;51.786;4.662;2023-09-19T03:04:08;16.21;71.68
82788;DHT22;72529;51.786;4.662;2023-09-19T03:06:36;16.20;71.87
82788;DHT22;72529;51.786;4.662;2023-09-19T03:09:03;16.15;71.40
82788;DHT22;72529;51.786;4.662;2023-09-19T03:11:31;16.15;70.57
82788;DHT22;72529;51.786;4.662;2023-09-19T03:13:56;16.10;71.03
82788;DHT22;72529;51.786;4.662;2023-09-19T03:16:22;16.11;70.52
82788;DHT22;72529;51.786;4.662;2023-09-19T03:18:48;16.18;70.26
82788;DHT22;72529;51.786;4.662;2023-09-19T03:21:17;16.08;70.67
82788;DHT22;72529;51.786;4.662;2023-09-19T03:23:44;16.08;70.98
82788;DHT22;72529;51.786;4.662;2023-09-19T03:26:12;16.08;70.81
82788;DHT22;72529;51.786;4.662;2023-09-19T03:28:38;16.14;70.56
82788;DHT22;72529;51.786;4.662;2023-09-19T03:31:05;16.03;71.39
82788;DHT22;72529;51.786;4.662;2023-09-19T03:33:31;16.10;70.30
82788;DHT22;72529;51.786;4.662;2023-09-19T03:35:58;15.98;70.97
82788;DHT22;72529;51.786;4.662;2023-09-19T03:38:25;15.96;71.99
82788;DHT22;72529;51.786;4.662;2023-09-19T03:40:51;15.96;71.37
82788;DHT22;72529;51.786;4.662;2023-09-19T03:43:16;16.03;71.55
82788;DHT22;72529;51.786;4.662;2023-09-19T03:45:42;15.96;71.42
82788;DHT22;72529;51.786;4.662;2023-09-19T03:48:11;15.91;71.33
82788;DHT22;72529;51.786;4.662;2023-09-19T03:50:37;15.91;71.99
82788;DHT22;72529;51.786;4.662;2023-09-19T03:53:03;15.97;71.91
82788;DHT22;72529;51.786;4.662;2023-09-19T03:55:29;15.87;71.38
82788;DHT22;72529;51.786;4.662;2023-09-19T03:57:56;15.83;72.25
82788;DHT22;72529;51.786;4.662;2023-09-19T04:00:22;15.89;72.41
82788;DHT22;72529;51.786;4.662;2023-09-19T04:02:52;15.91;71.63
82788;DHT22;72529;51.786;4.662;2023-09-19T04:05:17;15.84;72.95
82788;DHT22;72529;51.786;4.662;2023-09-19T04:07:43;15.81;72.48
82788;DHT22;72529;51.786;4.662;2023-09-19T04:10:09;15.81;73.24
82788;DHT22;72529;51.786;4.662;2023-09-19T04:12:37;15.80;73.20
82788;DHT22;72529;51.786;4.662;2023-09-19T04:15:04;15.79;72.55
82788;DHT22;72529;51.786;4.662;2023-09-19T04:17:30;15.73;73.12
82788;DHT22;72529;51.786;4.662;2023-09-19T04:19:58;15.71;74.33
82788;DHT22;72529;51.786;4.662;2023-09-19T04:22:23;15.69;74.44
82788;DHT22;72529;51.786;4.662;2023-09-19T04:24:49;15.84;73.42
82788;DHT22;72529;51.786;4.662;2023-09-19T04:27:14;15.83;74.20
82788;DHT22;72529;51.786;4.662;2023-09-19T04:29:40;15.79;74.98
82788;DHT22;72529;51.786;4.662;2023-09-19T04:32:07;15.81;74.67
82788;DHT22;72529;51.786;4.662;2023-09-19T04:34:33;15.81;74.63
82788;DHT22;72529;51.786;4.662;2023-09-19T04:37:00;15.84;74.18
82788;DHT22;72529;51.786;4.662;2023-09-19T04:39:26;15.98;73.50
82788;DHT22;72529;51.786;4.662;2023-09-19T04:41:53;15.91;74.10
82788;DHT22;72529;51.786;4.662;2023-09-19T04:44:18;15.96;73.78
82788;DHT22;72529;51.786;4.662;2023-09-19T04:46:44;15.93;74.75
82788;DHT22;72529;51.786;4.662;2023-09-19T04:49:11;15.91;74.24
82788;DHT22;72529;51.786;4.662;2023-09-19T04:51:37;15.98;73.81
82788;DHT22;72529;51.786;4.662;2023-09-19T04:54:03;16.07;74.01
82788;DHT22;72529;51.786;4.662;2023-09-19T04:56:29;15.96;73.78
82788;DHT22;72529;51.786;4.662;2023-09-19T04:58:55;16.07;73.60
82788;DHT22;72529;51.786;4.662;2023-09-19T05:01:20;16.01;73.67
82788;DHT22;72529;51.786;4.662;2023-09-19T05:03:47;16.07;73.95
82788;DHT22;72529;51.786;4.662;2023-09-19T05:06:20;16.10;73.83
82788;DHT22;72529;51.786;4.662;2023-09-19T05:08:49;16.18;73.18
82788;DHT22;72529;51.786;4.662;2023-09-19T05:11:20;16.21;73.51
82788;DHT22;72529;51.786;4.662;2023-09-19T05:13:49;16.20;73.26
82788;DHT22;72529;51.786;4.662;2023-09-19T05:16:16;16.11;74.22
82788;DHT22;72529;51.786;4.662;2023-09-19T05:18:41;16.08;74.66
82788;DHT22;72529;51.786;4.662;2023-09-19T05:21:07;16.04;74.42
82788;DHT22;72529;51.786;4.662;2023-09-19T05:23:33;16.04;74.78
82788;DHT22;72529;51.786;4.662;2023-09-19T05:25:58;16.07;74.72
82788;DHT22;72529;51.786;4.662;2023-09-19T05:28:25;16.11;74.60
82788;DHT22;72529;51.786;4.662;2023-09-19T05:30:52;16.05;75.04
82788;DHT22;72529;51.786;4.662;2023-09-19T05:33:18;16.01;75.36
82788;DHT22;72529;51.786;4.662;2023-09-19T05:35:44;16.04;75.59
82788;DHT22;72529;51.786;4.662;2023-09-19T05:38:11;16.15;75.13
82788;DHT22;72529;51.786;4.662;2023-09-19T05:40:38;16.20;75.43
82788;DHT22;72529;51.786;4.662;2023-09-19T05:43:06;16.18;75.25
82788;DHT22;72529;51.786;4.662;2023-09-19T05:45:31;16.18;75.19
82788;DHT22;72529;51.786;4.662;2023-09-19T05:48:11;16.24;75.42
82788;DHT22;72529;51.786;4.662;2023-09-19T05:50:37;16.20;75.20
82788;DHT22;72529;51.786;4.662;2023-09-19T05:53:03;16.24;75.48
82788;DHT22;72529;51.786;4.662;2023-09-19T05:55:30;16.24;75.29
82788;DHT22;72529;51.786;4.662;2023-09-19T05:57:55;16.31;75.11
82788;DHT22;72529;51.786;4.662;2023-09-19T06:00:23;16.34;75.43
82788;DHT22;72529;51.786;4.662;2023-09-19T06:02:52;16.26;75.42
82788;DHT22;72529;51.786;4.662;2023-09-19T06:05:18;16.29;75.65
82788;DHT22;72529;51.786;4.662;2023-09-19T06:07:44;16.31;75.63
82788;DHT22;72529;51.786;4.662;2023-09-19T06:10:10;16.31;75.51
82788;DHT22;72529;51.786;4.662;2023-09-19T06:12:42;16.24;75.80
82788;DHT22;72529;51.786;4.662;2023-09-19T06:15:12;16.25;75.49
82788;DHT22;72529;51.786;4.662;2023-09-19T06:17:54;16.24;76.20
82788;DHT22;72529;51.786;4.662;2023-09-19T06:20:20;16.25;75.63
82788;DHT22;72529;51.786;4.662;2023-09-19T06:22:47;16.28;75.59
82788;DHT22;72529;51.786;4.662;2023-09-19T06:25:15;16.25;75.63
82788;DHT22;72529;51.786;4.662;2023-09-19T06:27:53;16.25;75.90
82788;DHT22;72529;51.786;4.662;2023-09-19T06:30:21;16.31;75.76
82788;DHT22;72529;51.786;4.662;2023-09-19T06:32:48;16.31;75.76
82788;DHT22;72529;51.786;4.662;2023-09-19T06:35:15;16.24;76.82
82788;DHT22;72529;51.786;4.662;2023-09-19T06:37:42;16.21;76.13
82788;DHT22;72529;51.786;4.662;2023-09-19T06:40:12;16.31;76.05
82788;DHT22;72529;51.786;4.662;2023-09-19T06:42:44;16.31;75.76
82788;DHT22;72529;51.786;4.662;2023-09-19T06:45:14;16.35;75.63
82788;DHT22;72529;51.786;4.662;2023-09-19T06:47:50;16.45;75.06
82788;DHT22;72529;51.786;4.662;2023-09-19T06:50:20;16.38;75.95
82788;DHT22;72529;51.786;4.662;2023-09-19T06:52:48;16.38;75.95
82788;DHT22;72529;51.786;4.662;2023-09-19T06:55:16;16.36;75.66
82788;DHT22;72529;51.786;4.662;2023-09-19T06:57:42;16.40;75.85
82788;DHT22;72529;51.786;4.662;2023-09-19T07:00:09;16.47;75.65
82788;DHT22;72529;51.786;4.662;2023-09-19T07:03:05;16.42;75.41
82788;DHT22;72529;51.786;4.662;2023-09-19T07:05:35;16.44;75.83
82788;DHT22;72529;51.786;4.662;2023-09-19T07:08:06;16.49;75.91
82788;DHT22;72529;51.786;4.662;2023-09-19T07:10:32;16.54;75.37
82788;DHT22;72529;51.786;4.662;2023-09-19T07:13:04;16.56;75.33
82788;DHT22;72529;51.786;4.662;2023-09-19T07:15:33;16.68;75.36
82788;DHT22;72529;51.786;4.662;2023-09-19T07:18:05;16.66;75.63
82788;DHT22;72529;51.786;4.662;2023-09-19T07:20:32;16.73;75.40
82788;DHT22;72529;51.786;4.662;2023-09-19T07:22:58;16.78;75.50
82788;DHT22;72529;51.786;4.662;2023-09-19T07:25:30;16.85;75.81
82788;DHT22;72529;51.786;4.662;2023-09-19T07:27:57;16.83;76.08
82788;DHT22;72529;51.786;4.662;2023-09-19T07:30:25;16.85;74.93
82788;DHT22;72529;51.786;4.662;2023-09-19T07:32:51;16.93;75.39
82788;DHT22;72529;51.786;4.662;2023-09-19T07:35:17;17.05;74.55
82788;DHT22;72529;51.786;4.662;2023-09-19T07:37:46;17.06;74.73
82788;DHT22;72529;51.786;4.662;2023-09-19T07:40:17;17.09;75.65
82788;DHT22;72529;51.786;4.662;2023-09-19T07:42:43;17.15;75.47
82788;DHT22;72529;51.786;4.662;2023-09-19T07:45:10;17.17;75.41
82788;DHT22;72529;51.786;4.662;2023-09-19T07:47:50;17.17;74.78
82788;DHT22;72529;51.786;4.662;2023-09-19T07:50:17;17.17;74.46
82788;DHT22;72529;51.786;4.662;2023-09-19T07:52:48;17.26;74.32
82788;DHT22;72529;51.786;4.662;2023-09-19T07:55:13;17.29;73.85
82788;DHT22;72529;51.786;4.662;2023-09-19T07:57:45;17.37;73.39
82788;DHT22;72529;51.786;4.662;2023-09-19T08:00:12;17.34;73.33
82788;DHT22;72529;51.786;4.662;2023-09-19T08:02:39;17.40;74.25
82788;DHT22;72529;51.786;4.662;2023-09-19T08:05:06;17.36;73.94
82788;DHT22;72529;51.786;4.662;2023-09-19T08:07:32;17.31;73.89
82788;DHT22;72529;51.786;4.662;2023-09-19T08:09:58;17.40;72.94
82788;DHT22;72529;51.786;4.662;2023-09-19T08:12:24;17.41;74.07
82788;DHT22;72529;51.786;4.662;2023-09-19T08:14:49;17.39;74.21
82788;DHT22;72529;51.786;4.662;2023-09-19T08:17:15;17.41;73.98
82788;DHT22;72529;51.786;4.662;2023-09-19T08:19:41;17.40;72.96
82788;DHT22;72529;51.786;4.662;2023-09-19T08:22:10;17.50;72.86
82788;DHT22;72529;51.786;4.662;2023-09-19T08:24:36;17.50;72.42
82788;DHT22;72529;51.786;4.662;2023-09-19T08:27:04;17.47;73.89
82788;DHT22;72529;51.786;4.662;2023-09-19T08:29:31;17.59;73.20
82788;DHT22;72529;51.786;4.662;2023-09-19T08:31:57;17.59;73.50
82788;DHT22;72529;51.786;4.662;2023-09-19T08:34:24;17.67;72.09
82788;DHT22;72529;51.786;4.662;2023-09-19T08:36:54;17.74;73.54
82788;DHT22;72529;51.786;4.662;2023-09-19T08:39:23;17.87;71.20
82788;DHT22;72529;51.786;4.662;2023-09-19T08:41:48;17.90;71.98
82788;DHT22;72529;51.786;4.662;2023-09-19T08:44:15;18.02;71.81
82788;DHT22;72529;51.786;4.662;2023-09-19T08:46:42;18.05;71.95
82788;DHT22;72529;51.786;4.662;2023-09-19T08:49:19;18.14;72.90
82788;DHT22;72529;51.786;4.662;2023-09-19T08:51:56;18.28;71.32
82788;DHT22;72529;51.786;4.662;2023-09-19T08:54:29;18.32;70.84
82788;DHT22;72529;51.786;4.662;2023-09-19T08:57:00;18.44;70.80
82788;DHT22;72529;51.786;4.662;2023-09-19T08:59:30;18.36;70.20
82788;DHT22;72529;51.786;4.662;2023-09-19T09:01:57;18.35;70.82
82788;DHT22;72529;51.786;4.662;2023-09-19T09:04:24;18.48;70.64
82788;DHT22;72529;51.786;4.662;2023-09-19T09:06:53;18.53;70.77
82788;DHT22;72529;51.786;4.662;2023-09-19T09:09:20;18.66;70.56
82788;DHT22;72529;51.786;4.662;2023-09-19T09:11:48;18.80;71.96
82788;DHT22;72529;51.786;4.662;2023-09-19T09:14:13;18.83;68.95
82788;DHT22;72529;51.786;4.662;2023-09-19T09:16:39;18.85;69.18
82788;DHT22;72529;51.786;4.662;2023-09-19T09:19:05;18.77;70.24
82788;DHT22;72529;51.786;4.662;2023-09-19T09:21:30;18.80;68.69
82788;DHT22;72529;51.786;4.662;2023-09-19T09:24:26;18.86;70.37
82788;DHT22;72529;51.786;4.662;2023-09-19T09:26:53;19.02;69.14
82788;DHT22;72529;51.786;4.662;2023-09-19T09:29:40;19.26;69.34
82788;DHT22;72529;51.786;4.662;2023-09-19T09:32:26;19.16;69.23
82788;DHT22;72529;51.786;4.662;2023-09-19T09:34:59;19.08;68.01
82788;DHT22;72529;51.786;4.662;2023-09-19T09:37:25;19.07;69.72
82788;DHT22;72529;51.786;4.662;2023-09-19T09:39:57;19.10;68.16
82788;DHT22;72529;51.786;4.662;2023-09-19T09:42:34;19.26;68.42
82788;DHT22;72529;51.786;4.662;2023-09-19T09:47:47;19.43;68.41
82788;DHT22;72529;51.786;4.662;2023-09-19T09:52:55;19.53;67.31
82788;DHT22;72529;51.786;4.662;2023-09-19T09:55:28;19.54;67.26
82788;DHT22;72529;51.786;4.662;2023-09-19T09:58:16;19.58;67.89
82788;DHT22;72529;51.786;4.662;2023-09-19T10:00:55;19.81;69.33
82788;DHT22;72529;51.786;4.662;2023-09-19T10:03:34;20.08;66.60
82788;DHT22;72529;51.786;4.662;2023-09-19T10:06:15;20.13;67.61
82788;DHT22;72529;51.786;4.662;2023-09-19T10:09:07;19.98;66.38
82788;DHT22;72529;51.786;4.662;2023-09-19T10:11:47;19.88;65.72
82788;DHT22;72529;51.786;4.662;2023-09-19T10:14:20;19.89;66.41
82788;DHT22;72529;51.786;4.662;2023-09-19T10:16:49;19.81;67.80
82788;DHT22;72529;51.786;4.662;2023-09-19T10:19:21;19.77;67.57
82788;DHT22;72529;51.786;4.662;2023-09-19T10:21:50;19.88;68.24
82788;DHT22;72529;51.786;4.662;2023-09-19T10:24:17;19.89;66.79
82788;DHT22;72529;51.786;4.662;2023-09-19T10:26:43;19.78;65.66
82788;DHT22;72529;51.786;4.662;2023-09-19T10:29:13;19.82;67.38
82788;DHT22;72529;51.786;4.662;2023-09-19T10:31:42;20.15;66.67
82788;DHT22;72529;51.786;4.662;2023-09-19T10:34:14;20.36;64.13
82788;DHT22;72529;51.786;4.662;2023-09-19T10:36:44;20.60;64.43
82788;DHT22;72529;51.786;4.662;2023-09-19T10:39:11;20.73;63.38
82788;DHT22;72529;51.786;4.662;2023-09-19T10:41:39;20.74;62.22
82788;DHT22;72529;51.786;4.662;2023-09-19T10:44:05;20.84;63.31
82788;DHT22;72529;51.786;4.662;2023-09-19T10:46:34;20.91;63.10
82788;DHT22;72529;51.786;4.662;2023-09-19T10:49:01;20.88;62.87
82788;DHT22;72529;51.786;4.662;2023-09-19T10:51:41;20.93;63.64
82788;DHT22;72529;51.786;4.662;2023-09-19T10:54:17;21.04;62.12
82788;DHT22;72529;51.786;4.662;2023-09-19T10:56:49;21.12;61.92
82788;DHT22;72529;51.786;4.662;2023-09-19T10:59:21;20.96;62.44
82788;DHT22;72529;51.786;4.662;2023-09-19T11:02:17;21.07;63.08
82788;DHT22;72529;51.786;4.662;2023-09-19T11:04:43;21.15;61.02
82788;DHT22;72529;51.786;4.662;2023-09-19T11:07:14;21.06;62.54
82788;DHT22;72529;51.786;4.662;2023-09-19T11:09:54;20.98;60.47
82788;DHT22;72529;51.786;4.662;2023-09-19T11:14:51;21.06;63.30
82788;DHT22;72529;51.786;4.662;2023-09-19T11:30:32;20.77;62.72
82788;DHT22;72529;51.786;4.662;2023-09-19T11:43:48;20.64;64.50
82788;DHT22;72529;51.786;4.662;2023-09-19T11:46:16;20.57;64.72
82788;DHT22;72529;51.786;4.662;2023-09-19T11:48:51;20.43;65.33
82788;DHT22;72529;51.786;4.662;2023-09-19T11:51:21;20.39;64.67
82788;DHT22;72529;51.786;4.662;2023-09-19T11:53:52;20.36;65.74
82788;DHT22;72529;51.786;4.662;2023-09-19T11:56:23;20.42;66.68
82788;DHT22;72529;51.786;4.662;2023-09-19T11:58:56;20.50;66.04
82788;DHT22;72529;51.786;4.662;2023-09-19T12:01:31;20.46;65.83
82788;DHT22;72529;51.786;4.662;2023-09-19T12:03:59;20.40;65.02
82788;DHT22;72529;51.786;4.662;2023-09-19T12:06:26;20.36;65.01
82788;DHT22;72529;51.786;4.662;2023-09-19T12:08:53;20.36;65.78
82788;DHT22;72529;51.786;4.662;2023-09-19T12:11:29;20.26;64.57
82788;DHT22;72529;51.786;4.662;2023-09-19T12:13:59;20.32;64.70
82788;DHT22;72529;51.786;4.662;2023-09-19T12:16:26;20.33;65.92
82788;DHT22;72529;51.786;4.662;2023-09-19T12:18:56;20.21;66.61
82788;DHT22;72529;51.786;4.662;2023-09-19T12:21:31;20.28;65.15
82788;DHT22;72529;51.786;4.662;2023-09-19T12:26:28;20.18;66.44
82788;DHT22;72529;51.786;4.662;2023-09-19T12:28:59;20.06;66.50
82788;DHT22;72529;51.786;4.662;2023-09-19T12:31:27;20.19;66.16
82788;DHT22;72529;51.786;4.662;2023-09-19T12:33:54;20.12;66.33
82788;DHT22;72529;51.786;4.662;2023-09-19T12:36:23;20.19;65.81
82788;DHT22;72529;51.786;4.662;2023-09-19T12:38:50;20.15;65.94
82788;DHT22;72529;51.786;4.662;2023-09-19T12:41:19;20.21;66.11
82788;DHT22;72529;51.786;4.662;2023-09-19T12:43:46;20.11;66.31
82788;DHT22;72529;51.786;4.662;2023-09-19T12:46:12;20.12;66.41
82788;DHT22;72529;51.786;4.662;2023-09-19T12:48:37;20.13;67.32
82788;DHT22;72529;51.786;4.662;2023-09-19T12:51:11;20.05;67.42
82788;DHT22;72529;51.786;4.662;2023-09-19T12:53:46;20.04;67.40
82788;DHT22;72529;51.786;4.662;2023-09-19T12:56:18;20.12;66.24
82788;DHT22;72529;51.786;4.662;2023-09-19T12:58:53;20.22;67.33
82788;DHT22;72529;51.786;4.662;2023-09-19T13:01:25;20.32;65.53
82788;DHT22;72529;51.786;4.662;2023-09-19T13:04:13;20.84;65.15
82788;DHT22;72529;51.786;4.662;2023-09-19T13:06:44;21.30;65.02
82788;DHT22;72529;51.786;4.662;2023-09-19T13:09:12;21.44;64.86
82788;DHT22;72529;51.786;4.662;2023-09-19T13:11:41;21.37;64.03
82788;DHT22;72529;51.786;4.662;2023-09-19T13:14:17;21.34;64.96
82788;DHT22;72529;51.786;4.662;2023-09-19T13:17:01;21.32;63.43
82788;DHT22;72529;51.786;4.662;2023-09-19T13:19:46;21.17;63.87
82788;DHT22;72529;51.786;4.662;2023-09-19T13:22:42;21.12;63.14
82788;DHT22;72529;51.786;4.662;2023-09-19T13:25:15;21.01;64.40
82788;DHT22;72529;51.786;4.662;2023-09-19T13:27:55;20.98;62.79
82788;DHT22;72529;51.786;4.662;2023-09-19T13:30:23;20.88;64.16
82788;DHT22;72529;51.786;4.662;2023-09-19T13:32:51;20.83;64.94
82788;DHT22;72529;51.786;4.662;2023-09-19T13:35:18;20.70;64.44
82788;DHT22;72529;51.786;4.662;2023-09-19T13:37:44;20.70;64.67
82788;DHT22;72529;51.786;4.662;2023-09-19T13:40:15;20.63;63.96
82788;DHT22;72529;51.786;4.662;2023-09-19T13:42:42;20.56;65.74
82788;DHT22;72529;51.786;4.662;2023-09-19T13:45:08;20.60;65.04
82788;DHT22;72529;51.786;4.662;2023-09-19T13:47:37;20.62;64.76
82788;DHT22;72529;51.786;4.662;2023-09-19T13:50:04;20.60;65.47
82788;DHT22;72529;51.786;4.662;2023-09-19T13:52:30;20.45;65.17
82788;DHT22;72529;51.786;4.662;2023-09-19T13:54:57;20.45;65.54
82788;DHT22;72529;51.786;4.662;2023-09-19T13:57:23;20.49;65.13
82788;DHT22;72529;51.786;4.662;2023-09-19T13:59:49;20.49;65.03
82788;DHT22;72529;51.786;4.662;2023-09-19T14:02:15;20.43;65.44
82788;DHT22;72529;51.786;4.662;2023-09-19T14:04:44;20.45;65.91
82788;DHT22;72529;51.786;4.662;2023-09-19T14:07:09;20.43;65.39
82788;DHT22;72529;51.786;4.662;2023-09-19T14:09:36;20.40;65.45
82788;DHT22;72529;51.786;4.662;2023-09-19T14:12:02;20.37;66.01
82788;DHT22;72529;51.786;4.662;2023-09-19T14:14:27;20.32;65.09
82788;DHT22;72529;51.786;4.662;2023-09-19T14:16:53;20.30;65.91
82788;DHT22;72529;51.786;4.662;2023-09-19T14:19:18;20.33;65.31
82788;DHT22;72529;51.786;4.662;2023-09-19T14:21:44;20.19;65.70
82788;DHT22;72529;51.786;4.662;2023-09-19T14:24:09;20.08;65.87
82788;DHT22;72529;51.786;4.662;2023-09-19T14:26:39;20.09;65.77
82788;DHT22;72529;51.786;4.662;2023-09-19T14:29:04;20.08;65.72
82788;DHT22;72529;51.786;4.662;2023-09-19T14:31:33;20.16;66.29
82788;DHT22;72529;51.786;4.662;2023-09-19T14:33:58;20.15;66.48
82788;DHT22;72529;51.786;4.662;2023-09-19T14:36:25;20.11;66.18
82788;DHT22;72529;51.786;4.662;2023-09-19T14:38:55;20.05;66.20
82788;DHT22;72529;51.786;4.662;2023-09-19T14:41:23;20.02;65.88
82788;DHT22;72529;51.786;4.662;2023-09-19T14:43:51;19.99;66.34
82788;DHT22;72529;51.786;4.662;2023-09-19T14:46:17;20.04;66.61
82788;DHT22;72529;51.786;4.662;2023-09-19T14:48:44;20.08;66.59
82788;DHT22;72529;51.786;4.662;2023-09-19T14:51:13;20.11;67.05
82788;DHT22;72529;51.786;4.662;2023-09-19T14:53:39;20.08;66.87
82788;DHT22;72529;51.786;4.662;2023-09-19T14:56:07;20.15;68.66
82788;DHT22;72529;51.786;4.662;2023-09-19T14:58:34;20.18;67.40
82788;DHT22;72529;51.786;4.662;2023-09-19T15:01:08;20.16;67.49
82788;DHT22;72529;51.786;4.662;2023-09-19T15:03:36;20.19;67.34
82788;DHT22;72529;51.786;4.662;2023-09-19T15:06:04;20.19;67.12
82788;DHT22;72529;51.786;4.662;2023-09-19T15:08:35;20.13;66.90
82788;DHT22;72529;51.786;4.662;2023-09-19T15:11:09;20.21;67.01
82788;DHT22;72529;51.786;4.662;2023-09-19T15:13:37;20.19;67.25
82788;DHT22;72529;51.786;4.662;2023-09-19T15:16:06;20.23;66.36
82788;DHT22;72529;51.786;4.662;2023-09-19T15:18:38;20.19;67.09
82788;DHT22;72529;51.786;4.662;2023-09-19T15:21:05;20.23;67.09
82788;DHT22;72529;51.786;4.662;2023-09-19T15:23:32;20.26;66.74
82788;DHT22;72529;51.786;4.662;2023-09-19T15:26:03;20.25;66.66
82788;DHT22;72529;51.786;4.662;2023-09-19T15:28:29;20.26;66.58
82788;DHT22;72529;51.786;4.662;2023-09-19T15:31:06;20.29;66.29
82788;DHT22;72529;51.786;4.662;2023-09-19T15:33:33;20.35;65.56
82788;DHT22;72529;51.786;4.662;2023-09-19T15:36:09;20.35;67.00
82788;DHT22;72529;51.786;4.662;2023-09-19T15:41:27;20.32;66.21
82788;DHT22;72529;51.786;4.662;2023-09-19T15:43:54;20.26;65.82
82788;DHT22;72529;51.786;4.662;2023-09-19T15:46:20;20.28;66.45
82788;DHT22;72529;51.786;4.662;2023-09-19T15:48:46;20.26;67.23
82788;DHT22;72529;51.786;4.662;2023-09-19T15:51:12;20.26;67.01
82788;DHT22;72529;51.786;4.662;2023-09-19T15:53:44;20.26;67.03
82788;DHT22;72529;51.786;4.662;2023-09-19T15:56:13;20.15;66.78
82788;DHT22;72529;51.786;4.662;2023-09-19T15:58:46;20.11;66.59
82788;DHT22;72529;51.786;4.662;2023-09-19T16:01:12;20.02;66.82
82788;DHT22;72529;51.786;4.662;2023-09-19T16:03:39;19.82;68.14
82788;DHT22;72529;51.786;4.662;2023-09-19T16:06:09;19.75;67.99
82788;DHT22;72529;51.786;4.662;2023-09-19T16:08:41;19.81;68.58
82788;DHT22;72529;51.786;4.662;2023-09-19T16:11:08;19.81;67.91
82788;DHT22;72529;51.786;4.662;2023-09-19T16:13:35;19.82;68.16
82788;DHT22;72529;51.786;4.662;2023-09-19T16:16:01;19.95;67.77
82788;DHT22;72529;51.786;4.662;2023-09-19T16:18:26;19.86;67.82
82788;DHT22;72529;51.786;4.662;2023-09-19T16:20:51;19.88;67.78
82788;DHT22;72529;51.786;4.662;2023-09-19T16:23:17;19.89;68.27
82788;DHT22;72529;51.786;4.662;2023-09-19T16:25:43;19.88;68.61
82788;DHT22;72529;51.786;4.662;2023-09-19T16:28:10;19.85;68.45